Wittmann, Arizona
Current Conditions -  °F | °C
As of 5:58 AM on Thursday 23 Oct 2014 (Local Time) from KLUF Reporting Station
Clear Clear  
Wind Chill: 62°   Ceiling: Unl
Heat Index: 62°   Visibility: 10mi
Dew Point: 49°   Wind: 6mph
Humidity: 61%   Direction: 330°NNW
Pressure: 29.98"   Gusts: NA
Location:  33.78°N, 112.53°W
Report Text: KLUF 231258Z AUTO 33005KT 10SM CLR 17/09 A2998 RMK AO2 SLP142 T01680092 $
Loading
Personal Weather Stations






























Interactive Weather Map
Tropical Storm Tracking
New forecast layout! Learn more

10-Day Weather Forecast

Advertisements
Track Severe Weather on mobile